| time (UTC) | temp C | wind direction | speed KPH | gust KPH | rain 1hr cm | rain 24hr cm | rain mn cm | humidity % | barometer mb |
| 20260507075559 | 7 | 41 | 6.4 | 14.5 | 0.13 | 0.76 | 0.76 | 99 | 994.0 |
| 20260507074556 | 7 | 47 | 6.4 | 14.5 | 0.13 | 0.71 | 0.71 | 99 | 993.7 |
| 20260507073552 | 7 | 52 | 8.0 | 17.7 | 0.15 | 0.71 | 0.71 | 99 | 993.7 |
| 20260507072548 | 7 | 32 | 8.0 | 17.7 | 0.15 | 0.69 | 0.69 | 99 | 993.7 |
| 20260507071544 | 6 | 45 | 9.7 | 17.7 | 0.13 | 0.66 | 0.66 | 99 | 993.6 |
| 20260507070540 | 7 | 44 | 4.8 | 9.7 | 0.13 | 0.66 | 0.66 | 99 | 993.4 |
| 20260507065537 | 7 | 53 | 4.8 | 9.7 | 0.10 | 0.64 | 0.64 | 99 | 993.4 |
| 20260507064533 | 7 | 38 | 4.8 | 9.7 | 0.05 | 0.61 | 0.61 | 99 | 993.3 |
| 20260507063529 | 6 | 46 | 8.0 | 17.7 | 0.03 | 0.56 | 0.56 | 99 | 993.1 |
| 20260507062525 | 7 | 39 | 4.8 | 11.3 | 0.00 | 0.53 | 0.53 | 99 | 992.9 |
| 20260507061521 | 6 | 47 | 6.4 | 14.5 | 0.00 | 0.53 | 0.53 | 99 | 992.9 |
| 20260507060517 | 6 | 48 | 8.0 | 14.5 | 0.00 | 0.53 | 0.53 | 99 | 992.8 |
| 20260507055614 | 7 | 56 | 6.4 | 12.9 | 0.00 | 0.53 | 0.53 | 99 | 992.6 |
| 20260507054610 | 6 | 26 | 9.7 | 12.9 | 0.00 | 0.53 | 0.53 | 99 | 992.5 |
| 20260507053606 | 6 | 50 | 8.0 | 14.5 | 0.00 | 0.53 | 0.53 | 99 | 992.4 |
| 20260507052602 | 6 | 40 | 6.4 | 12.9 | 0.00 | 0.53 | 0.53 | 99 | 992.4 |
| 20260507051558 | 7 | 36 | 8.0 | 11.3 | 0.03 | 0.53 | 0.53 | 99 | 992.3 |
| 20260507050554 | 7 | 44 | 6.4 | 11.3 | 0.03 | 0.53 | 0.53 | 99 | 992.3 |
| 20260507045551 | 7 | 38 | 6.4 | 12.9 | 0.03 | 0.53 | 0.53 | 99 | 992.2 |
| 20260507044547 | 7 | 45 | 8.0 | 14.5 | 0.03 | 0.53 | 0.53 | 98 | 992.2 |
| 20260507043543 | 7 | 34 | 8.0 | 14.5 | 0.03 | 0.53 | 0.53 | 98 | 992.0 |
| 20260507042540 | 7 | 52 | 6.4 | 11.3 | 0.03 | 0.53 | 0.53 | 98 | 991.9 |
| 20260507041536 | 7 | 29 | 4.8 | 11.3 | 0.00 | 0.51 | 0.51 | 98 | 991.9 |
| 20260507040532 | 7 | 47 | 4.8 | 9.7 | 0.00 | 0.51 | 0.51 | 98 | 991.8 |
| 20260507035528 | 7 | 35 | 4.8 | 11.3 | 0.00 | 0.51 | 0.51 | 98 | 991.6 |
| 20260507034524 | 7 | 39 | 1.6 | 6.4 | 0.00 | 0.51 | 0.51 | 98 | 991.5 |
| 20260507033520 | 7 | 31 | 3.2 | 9.7 | 0.00 | 0.51 | 0.51 | 98 | 991.4 |
| 20260507032517 | 7 | 49 | 4.8 | 9.7 | 0.00 | 0.51 | 0.51 | 98 | 991.3 |
| 20260507031613 | 7 | 42 | 1.6 | 6.4 | 0.00 | 0.51 | 0.51 | 98 | 991.3 |
| 20260507030609 | 7 | 43 | 6.4 | 11.3 | 0.00 | 0.51 | 0.51 | 98 | 991.2 |
| 20260507025605 | 7 | 37 | 4.8 | 9.7 | 0.00 | 0.51 | 0.51 | 98 | 991.2 |
| 20260507024601 | 7 | 36 | 3.2 | 9.7 | 0.00 | 0.51 | 0.51 | 98 | 991.0 |
| 20260507023558 | 7 | 30 | 3.2 | 6.4 | 0.00 | 0.51 | 0.51 | 98 | 991.0 |
| 20260507022554 | 7 | 34 | 4.8 | 6.4 | 0.00 | 0.51 | 0.51 | 98 | 990.9 |
| 20260507021550 | 7 | 32 | 4.8 | 11.3 | 0.00 | 0.51 | 0.51 | 98 | 990.8 |
| 20260507020546 | 8 | 57 | 4.8 | 11.3 | 0.03 | 0.51 | 0.51 | 98 | 990.7 |
| 20260507015542 | 8 | 38 | 6.4 | 12.9 | 0.03 | 0.51 | 0.51 | 98 | 990.5 |
| 20260507014539 | 8 | 48 | 6.4 | 11.3 | 0.05 | 0.51 | 0.51 | 98 | 990.5 |
| 20260507013535 | 8 | 73 | 4.8 | 9.7 | 0.13 | 0.51 | 0.51 | 98 | 990.4 |
| 20260507012531 | 8 | 36 | 8.0 | 14.5 | 0.18 | 0.51 | 0.51 | 98 | 990.1 |
| 20260507011527 | 8 | 47 | 11.3 | 22.5 | 0.20 | 0.51 | 0.51 | 98 | 990.0 |
| 20260507010523 | 8 | 52 | 12.9 | 17.7 | 0.20 | 0.48 | 0.48 | 98 | 989.9 |
| 20260507005519 | 8 | 36 | 11.3 | 17.7 | 0.23 | 0.48 | 0.48 | 97 | 990.1 |
| 20260507004516 | 8 | 57 | 8.0 | 17.7 | 0.28 | 0.46 | 0.46 | 97 | 990.3 |
| 20260507003612 | 8 | 41 | 4.8 | 9.7 | 0.23 | 0.38 | 0.38 | 97 | 990.2 |
| 20260507002608 | 8 | 47 | 8.0 | 12.9 | 0.20 | 0.33 | 0.33 | 97 | 990.0 |
| 20260507001604 | 8 | 56 | 9.7 | 17.7 | 0.20 | 0.30 | 0.30 | 97 | 989.9 |
| 20260507000601 | 8 | 90 | 6.4 | 9.7 | 0.23 | 0.33 | 0.28 | 97 | 990.2 |
| 20260506235557 | 8 | 59 | 6.4 | 14.5 | 0.23 | 0.30 | 0.23 | 96 | 990.2 |
| 20260506234553 | 9 | 62 | 4.8 | 9.7 | 0.18 | 0.28 | 0.18 | 96 | 990.3 |
| 20260506233549 | 9 | 63 | 4.8 | 6.4 | 0.15 | 0.28 | 0.15 | 95 | 990.3 |
| 20260506232545 | 9 | 52 | 6.4 | 11.3 | 0.13 | 0.23 | 0.13 | 95 | 990.3 |
| 20260506231541 | 9 | 54 | 4.8 | 9.7 | 0.10 | 0.23 | 0.10 | 94 | 990.2 |
| 20260506230537 | 9 | 37 | 3.2 | 6.4 | 0.03 | 0.20 | 0.03 | 93 | 990.3 |
| 20260506225533 | 10 | 44 | 3.2 | 9.7 | 0.00 | 0.30 | 0.00 | 92 | 990.3 |
| 20260506224600 | 10 | 37 | 4.8 | 11.3 | 0.00 | 1.02 | 0.00 | 92 | 990.2 |
| 20260506223556 | 10 | 39 | 4.8 | 6.4 | 0.00 | 1.17 | 0.00 | 92 | 990.1 |
| 20260506222552 | 10 | 29 | 3.2 | 6.4 | 0.00 | 1.35 | 0.00 | 92 | 990.0 |
| 20260506221548 | 10 | 41 | 1.6 | 6.4 | 0.00 | 1.50 | 0.00 | 92 | 990.0 |
| 20260506220544 | 10 | 68 | 6.4 | 11.3 | 0.00 | 1.55 | 0.00 | 93 | 989.6 |
| 20260506215541 | 10 | 45 | 6.4 | 12.9 | 0.00 | 1.80 | 1.80 | 92 | 989.7 |
| 20260506214536 | 10 | 47 | 3.2 | 9.7 | 0.00 | 1.98 | 1.80 | 92 | 989.7 |
| 20260506213533 | 10 | 44 | 9.7 | 17.7 | 0.00 | 1.98 | 1.80 | 92 | 989.6 |
| 20260506212529 | 10 | 63 | 8.0 | 14.5 | 0.00 | 1.98 | 1.80 | 92 | 989.4 |
| 20260506211525 | 10 | 38 | 8.0 | 17.7 | 0.00 | 1.98 | 1.80 | 92 | 989.3 |
| 20260506210521 | 10 | 50 | 6.4 | 11.3 | 0.00 | 1.98 | 1.80 | 92 | 989.1 |
| 20260506205517 | 11 | 53 | 6.4 | 11.3 | 0.00 | 1.98 | 1.80 | 92 | 989.2 |
| 20260506204614 | 11 | 43 | 4.8 | 11.3 | 0.00 | 1.98 | 1.80 | 92 | 989.1 |
| 20260506203610 | 11 | 40 | 4.8 | 9.7 | 0.00 | 1.98 | 1.80 | 93 | 989.2 |
| 20260506202607 | 11 | 42 | 8.0 | 11.3 | 0.00 | 1.98 | 1.80 | 93 | 989.0 |
| 20260506201603 | 11 | 51 | 9.7 | 20.9 | 0.00 | 1.98 | 1.80 | 93 | 988.8 |
| 20260506200559 | 11 | 41 | 8.0 | 14.5 | 0.00 | 1.98 | 1.80 | 93 | 988.7 |
| 20260506195555 | 11 | 23 | 6.4 | 14.5 | 0.00 | 1.98 | 1.80 | 93 | 988.6 |
| 20260506194552 | 11 | 21 | 8.0 | 12.9 | 0.00 | 1.98 | 1.80 | 93 | 988.6 |
| 20260506193548 | 11 | 41 | 8.0 | 14.5 | 0.00 | 1.98 | 1.80 | 93 | 988.5 |
| 20260506192544 | 11 | 37 | 4.8 | 9.7 | 0.00 | 1.98 | 1.80 | 92 | 988.3 |
| 20260506191540 | 11 | 45 | 4.8 | 9.7 | 0.00 | 1.98 | 1.80 | 92 | 988.3 |
| 20260506190537 | 11 | 34 | 4.8 | 9.7 | 0.00 | 1.98 | 1.80 | 91 | 988.3 |
| 20260506185533 | 12 | 48 | 9.7 | 17.7 | 0.00 | 1.98 | 1.80 | 90 | 988.2 |
| 20260506184529 | 12 | 83 | 8.0 | 17.7 | 0.00 | 1.98 | 1.80 | 90 | 988.2 |
| 20260506183525 | 12 | 47 | 6.4 | 12.9 | 0.00 | 1.98 | 1.80 | 89 | 988.1 |
| 20260506182521 | 12 | 35 | 9.7 | 17.7 | 0.00 | 1.98 | 1.80 | 89 | 988.2 |
| 20260506181517 | 12 | 33 | 9.7 | 14.5 | 0.00 | 1.98 | 1.80 | 89 | 988.0 |
| 20260506180614 | 12 | 43 | 8.0 | 17.7 | 0.00 | 1.98 | 1.80 | 89 | 987.8 |
| 20260506175610 | 12 | 44 | 8.0 | 14.5 | 0.00 | 1.98 | 1.80 | 89 | 987.8 |
| 20260506174606 | 13 | 28 | 9.7 | 14.5 | 0.00 | 1.98 | 1.80 | 88 | 987.8 |
| 20260506173602 | 13 | 36 | 8.0 | 12.9 | 0.00 | 1.98 | 1.80 | 88 | 987.6 |
| 20260506172559 | 13 | 29 | 4.8 | 12.9 | 0.00 | 1.98 | 1.80 | 87 | 987.6 |
| 20260506171555 | 13 | 40 | 8.0 | 17.7 | 0.00 | 1.98 | 1.80 | 87 | 987.3 |
| 20260506170551 | 13 | 33 | 8.0 | 12.9 | 0.00 | 1.98 | 1.80 | 86 | 987.4 |
| 20260506165547 | 14 | 42 | 9.7 | 17.7 | 0.00 | 1.98 | 1.80 | 86 | 987.2 |
| 20260506164543 | 14 | 19 | 9.7 | 17.7 | 0.00 | 1.98 | 1.80 | 85 | 987.2 |
| 20260506163540 | 15 | 46 | 6.4 | 14.5 | 0.00 | 1.98 | 1.80 | 85 | 987.3 |
| 20260506162536 | 15 | 32 | 11.3 | 22.5 | 0.00 | 1.98 | 1.80 | 85 | 987.4 |
| 20260506161532 | 15 | 56 | 9.7 | 17.7 | 0.00 | 1.98 | 1.80 | 85 | 987.4 |
| 20260506160528 | 15 | 33 | 6.4 | 12.9 | 0.00 | 1.98 | 1.80 | 85 | 987.4 |
| 20260506155525 | 15 | 41 | 9.7 | 20.9 | 0.00 | 1.98 | 1.80 | 83 | 987.5 |
| 20260506154521 | 16 | 44 | 8.0 | 17.7 | 0.00 | 1.98 | 1.80 | 83 | 987.4 |
| 20260506153517 | 16 | 34 | 9.7 | 17.7 | 0.00 | 1.98 | 1.80 | 82 | 987.5 |
| 20260506152614 | 16 | 48 | 9.7 | 14.5 | 0.00 | 1.98 | 1.80 | 81 | 987.5 |
| 20260506151610 | 16 | 26 | 8.0 | 17.7 | 0.00 | 1.98 | 1.80 | 82 | 987.5 |
| 20260506150606 | 15 | 41 | 11.3 | 20.9 | 0.00 | 1.98 | 1.80 | 82 | 987.5 |
| 20260506145602 | 16 | 23 | 8.0 | 12.9 | 0.00 | 1.98 | 1.80 | 82 | 987.5 |
| 20260506144558 | 16 | 17 | 6.4 | 12.9 | 0.00 | 1.98 | 1.80 | 80 | 987.5 |
| 20260506143555 | 17 | 333 | 4.8 | 11.3 | 0.00 | 1.98 | 1.80 | 76 | 987.4 |
| 20260506142551 | 17 | 50 | 3.2 | 6.4 | 0.00 | 1.98 | 1.80 | 76 | 987.4 |
| 20260506141547 | 17 | 302 | 4.8 | 11.3 | 0.00 | 1.98 | 1.80 | 75 | 987.4 |
| 20260506140543 | 17 | 348 | 3.2 | 6.4 | 0.00 | 1.98 | 1.80 | 75 | 987.5 |
| 20260506135539 | 17 | 303 | 3.2 | 9.7 | 0.00 | 1.98 | 1.80 | 74 | 987.6 |
| 20260506134536 | 17 | 303 | 3.2 | 11.3 | 0.00 | 1.98 | 1.80 | 75 | 987.6 |
| 20260506133532 | 17 | 16 | 4.8 | 11.3 | 0.00 | 1.98 | 1.80 | 74 | 987.7 |
| 20260506132528 | 17 | 276 | 4.8 | 11.3 | 0.00 | 1.98 | 1.80 | 77 | 987.8 |
| 20260506131524 | 16 | 292 | 8.0 | 14.5 | 0.00 | 1.98 | 1.80 | 78 | 987.8 |
| 20260506130520 | 16 | 305 | 8.0 | 12.9 | 0.00 | 1.98 | 1.80 | 78 | 987.8 |
| 20260506125517 | 17 | 297 | 4.8 | 9.7 | 0.00 | 1.98 | 1.80 | 79 | 987.7 |
| 20260506124613 | 16 | 302 | 4.8 | 11.3 | 0.00 | 1.98 | 1.80 | 80 | 987.8 |
| 20260506123609 | 16 | 284 | 9.7 | 17.7 | 0.00 | 1.98 | 1.80 | 79 | 987.8 |
| 20260506122606 | 17 | 307 | 8.0 | 17.7 | 0.00 | 1.98 | 1.80 | 78 | 987.8 |
| 20260506121602 | 16 | 262 | 12.9 | 20.9 | 0.00 | 1.98 | 1.80 | 77 | 987.7 |
| 20260506120558 | 16 | 342 | 4.8 | 12.9 | 0.00 | 1.98 | 1.80 | 81 | 987.8 |
| 20260506115554 | 16 | 305 | 6.4 | 12.9 | 0.00 | 1.98 | 1.80 | 80 | 987.7 |
| 20260506114551 | 16 | 302 | 9.7 | 17.7 | 0.00 | 1.98 | 1.80 | 82 | 987.7 |
| 20260506113547 | 16 | 297 | 8.0 | 14.5 | 0.00 | 1.98 | 1.80 | 83 | 987.8 |
| 20260506112543 | 16 | 319 | 8.0 | 14.5 | 0.00 | 1.98 | 1.80 | 83 | 987.9 |
| 20260506111539 | 16 | 291 | 9.7 | 17.7 | 0.00 | 1.98 | 1.80 | 82 | 987.8 |
| 20260506110536 | 16 | 278 | 6.4 | 11.3 | 0.00 | 1.98 | 1.80 | 82 | 987.7 |
| 20260506105532 | 15 | 289 | 9.7 | 17.7 | 0.00 | 1.98 | 1.80 | 83 | 987.8 |
| 20260506104528 | 15 | 288 | 12.9 | 25.7 | 0.00 | 1.98 | 1.80 | 84 | 987.7 |
| 20260506103524 | 15 | 281 | 11.3 | 22.5 | 0.00 | 1.98 | 1.80 | 85 | 987.7 |
| 20260506102521 | 15 | 267 | 12.9 | 22.5 | 0.00 | 1.98 | 1.80 | 85 | 987.6 |
| 20260506101517 | 16 | 294 | 11.3 | 20.9 | 0.00 | 1.98 | 1.80 | 82 | 987.5 |
| 20260506100613 | 15 | 282 | 9.7 | 17.7 | 0.00 | 1.98 | 1.80 | 84 | 987.5 |
| 20260506095609 | 15 | 293 | 14.5 | 29.0 | 0.00 | 1.98 | 1.80 | 85 | 987.4 |
| 20260506094606 | 15 | 271 | 8.0 | 20.9 | 0.00 | 1.98 | 1.80 | 85 | 987.3 |
| 20260506093602 | 15 | 285 | 12.9 | 24.1 | 0.00 | 1.98 | 1.80 | 85 | 987.2 |
| 20260506092558 | 15 | 292 | 14.5 | 25.7 | 0.00 | 1.98 | 1.80 | 86 | 987.1 |
| 20260506091555 | 15 | 271 | 12.9 | 24.1 | 0.00 | 1.98 | 1.80 | 87 | 987.0 |
| 20260506090551 | 14 | 260 | 14.5 | 25.7 | 0.00 | 1.98 | 1.80 | 88 | 986.8 |
| 20260506085547 | 15 | 283 | 9.7 | 17.7 | 0.00 | 2.01 | 1.80 | 87 | 986.8 |
| 20260506084543 | 15 | 267 | 14.5 | 29.0 | 0.00 | 2.01 | 1.80 | 86 | 986.5 |
| 20260506083540 | 15 | 253 | 9.7 | 22.5 | 0.00 | 2.01 | 1.80 | 86 | 986.2 |
| 20260506082536 | 14 | 284 | 11.3 | 25.7 | 0.00 | 2.01 | 1.80 | 88 | 986.2 |
| 20260506081532 | 14 | 273 | 11.3 | 24.1 | 0.00 | 2.01 | 1.80 | 89 | 986.2 |
| 20260506080528 | 14 | 264 | 11.3 | 24.1 | 0.00 | 2.01 | 1.80 | 89 | 986.2 |